Nebo, NC

8:40 PM EST on December 05, 2016 (GMT -0500)
Highway 70 E, Nebo, North Carolina | | Change Station

Elev 1339 ft 35.71 °N, 81.90 °W | Updated 1 minute ago

Rain
Rain
49.2 °F
Feels Like 49 °F
N
0.0
Wind Variable Wind from NE

Today
High -- | Low -- °F
--% Chance of Precip.
Yesterday
High -- | Low -- °F
Precip. -- in
Pressure 30.07 in
Visibility 10.0 miles
Clouds Overcast 4100 ft
Windchill 49 °F
Dew Point 47 °F
Humidity 93%
Rainfall 0.09 in
Snow Depth Not available.
7:23 AM 5:14 PM
Waxing Crescent, 36% visible
METAR KMRN 060125Z AUTO 00000KT 10SM RA OVC041 10/10 A3007 RMK AO2 T01000097
Pressure 30.07 in
Visibility 10.0 miles
Clouds Overcast 4100 ft
Windchill 49 °F
Dew Point 47 °F
Humidity 93%
Rainfall 0.09 in
Snow Depth Not available.
7:23 AM 5:14 PM
Waxing Crescent, 36% visible
METAR KMRN 060125Z AUTO 00000KT 10SM RA OVC041 10/10 A3007 RMK AO2 T01000097

10-Day Weather Forecast

Almanac

Astronomy

Dec. 05, 2016 Rise Set
Actual Time
Civil Twilight
Nautical Twilight
Astronomical Twilight
Moon
Length of Visible Light
Length of Day
Tomorrow will be .
, % of the Moon is Illuminated

Today's Extremes

State Highs State Lows

Community

WunderPhotos

Upload Photos

1,955,893 photos uploaded!

WunderBlog® & News

Nearby

Air Quality

  Air Quality AQ Index Pollutant
Not available.

Snow Depth

Station Depth Elevation

Earthquake Activity

City Distance Mag. Time & Date
Minimum magnitude displayed is 2.5.

Coastal Water Temperatures

Place Temperature

Stations

Nearby Weather Stations

Station Location Temp. Windchill Dew Point Humidity Wind Precip. Elev Updated Type
                   

Watches & Warnings

There are currently no watches in effect.